createdAt,value
2019-05-17T00:01:48.570Z,10.23
2019-05-17T00:04:19.498Z,10.25
2019-05-17T00:06:50.520Z,10.18
2019-05-17T00:09:21.689Z,10.35
2019-05-17T00:11:52.672Z,10.30
2019-05-17T00:14:23.656Z,10.24
2019-05-17T00:16:57.111Z,10.31
2019-05-17T00:19:27.547Z,10.32
2019-05-17T00:21:58.847Z,10.35
2019-05-17T00:24:32.686Z,10.42
2019-05-17T00:27:03.580Z,10.44
2019-05-17T00:29:37.037Z,10.27
2019-05-17T00:32:07.328Z,10.29
2019-05-17T00:34:38.317Z,10.29
2019-05-17T00:37:09.390Z,10.39
2019-05-17T00:39:42.523Z,10.42
2019-05-17T00:42:13.454Z,10.45
2019-05-17T00:44:44.391Z,10.40
2019-05-17T00:47:17.118Z,10.32
2019-05-17T00:49:48.055Z,10.43
2019-05-17T00:52:19.084Z,10.24
2019-05-17T00:54:50.186Z,10.11
2019-05-17T00:57:21.086Z,10.25
2019-05-17T00:59:52.105Z,10.36
2019-05-17T01:02:23.212Z,10.34
2019-05-17T01:04:54.255Z,10.36
2019-05-17T01:07:26.879Z,10.36
2019-05-17T01:09:59.346Z,10.29
2019-05-17T01:12:30.600Z,10.41
2019-05-17T01:15:01.997Z,10.40
2019-05-17T01:17:33.095Z,10.36
2019-05-17T01:20:06.688Z,10.34
2019-05-17T01:22:37.068Z,10.42
2019-05-17T01:25:08.702Z,10.42
2019-05-17T01:27:39.789Z,10.46
2019-05-17T01:30:10.915Z,10.53
2019-05-17T01:32:42.101Z,10.45
2019-05-17T01:35:13.030Z,10.46
2019-05-17T01:37:44.067Z,10.47
2019-05-17T01:40:17.327Z,10.42
2019-05-17T01:42:47.878Z,10.47
2019-05-17T01:45:18.938Z,10.27
2019-05-17T01:50:38.869Z,10.35
2019-05-17T01:53:09.823Z,10.30
2019-05-17T01:55:41.317Z,10.29
2019-05-17T01:58:12.272Z,10.40
2019-05-17T02:00:43.338Z,10.48
2019-05-17T02:03:14.342Z,10.39
2019-05-17T02:05:47.343Z,10.38
2019-05-17T02:08:18.159Z,10.41
2019-05-17T02:10:49.154Z,10.42
2019-05-17T02:13:20.147Z,10.47
2019-05-17T02:15:51.031Z,10.53
2019-05-17T02:18:21.996Z,10.51
2019-05-17T02:20:52.942Z,10.28
2019-05-17T02:23:24.001Z,10.46
2019-05-17T02:25:56.980Z,10.55
2019-05-17T02:28:27.588Z,10.42
2019-05-17T02:30:58.564Z,10.41
2019-05-17T02:33:29.547Z,10.30
2019-05-17T02:36:02.721Z,10.23
2019-05-17T02:38:33.558Z,10.26
2019-05-17T02:41:06.225Z,10.21
2019-05-17T02:43:37.227Z,10.21
2019-05-17T02:46:08.266Z,10.20
2019-05-17T02:48:42.530Z,10.20
2019-05-17T02:51:13.132Z,10.22
2019-05-17T02:53:44.665Z,10.21
2019-05-17T02:56:15.555Z,10.21
2019-05-17T02:58:46.473Z,10.29
2019-05-17T03:01:17.485Z,10.35
2019-05-17T03:03:48.528Z,10.30
2019-05-17T03:06:22.566Z,10.29
2019-05-17T03:08:52.579Z,10.32
2019-05-17T03:11:23.778Z,10.25
2019-05-17T03:13:54.768Z,10.26
2019-05-17T03:16:25.742Z,10.24
2019-05-17T03:18:56.695Z,10.28
2019-05-17T03:21:27.638Z,10.26
2019-05-17T03:23:58.609Z,10.26
2019-05-17T03:26:32.550Z,10.34
2019-05-17T03:29:05.705Z,10.29
2019-05-17T03:31:47.611Z,10.17
2019-05-17T03:34:16.648Z,10.12
2019-05-17T03:36:46.641Z,10.08
2019-05-17T03:39:17.836Z,10.07
2019-05-17T03:41:48.836Z,10.15
2019-05-17T03:44:22.447Z,9.82
2019-05-17T03:46:53.201Z,9.78
2019-05-17T03:49:24.380Z,9.95
2019-05-17T03:51:55.347Z,9.88
2019-05-17T03:54:26.352Z,9.84
2019-05-17T03:56:57.395Z,9.77
2019-05-17T03:59:28.408Z,9.87
2019-05-17T04:01:59.343Z,9.87
2019-05-17T04:04:33.041Z,9.88
2019-05-17T04:07:03.535Z,9.91
2019-05-17T04:09:37.747Z,9.98
2019-05-17T04:12:13.333Z,9.96
2019-05-17T04:14:43.158Z,9.90
2019-05-17T04:17:14.232Z,9.95
2019-05-17T04:19:45.255Z,9.93
2019-05-17T04:22:16.266Z,9.93
2019-05-17T04:24:47.314Z,9.89
2019-05-17T04:27:18.274Z,10.00
2019-05-17T04:29:49.253Z,9.99
2019-05-17T04:32:24.587Z,9.98
2019-05-17T04:34:55.588Z,9.99
2019-05-17T04:37:26.614Z,9.96
2019-05-17T04:39:57.718Z,10.01
2019-05-17T04:42:28.733Z,9.93
2019-05-17T04:45:03.326Z,10.10
2019-05-17T04:47:33.267Z,10.12
2019-05-17T04:50:04.615Z,10.07
2019-05-17T04:52:35.656Z,10.01
2019-05-17T04:55:07.683Z,10.13
2019-05-17T04:57:44.002Z,10.09
2019-05-17T05:00:15.133Z,10.05
2019-05-17T05:02:46.174Z,10.19
2019-05-17T05:05:17.135Z,10.19
2019-05-17T05:07:48.204Z,10.20
2019-05-17T05:10:27.473Z,10.11
2019-05-17T05:12:58.459Z,10.12
2019-05-17T05:15:44.103Z,10.05
2019-05-17T05:18:14.902Z,10.20
2019-05-17T05:20:45.983Z,10.11
2019-05-17T05:23:17.064Z,10.15
2019-05-17T05:25:48.098Z,10.21
2019-05-17T05:28:22.351Z,10.17
2019-05-17T05:30:52.720Z,10.30
2019-05-17T05:33:23.871Z,10.42
2019-05-17T05:35:56.640Z,10.36
2019-05-17T05:38:27.899Z,10.25
2019-05-17T05:40:58.894Z,10.34
2019-05-17T05:43:29.705Z,10.40
2019-05-17T05:46:02.584Z,10.42
2019-05-17T05:48:33.700Z,10.58
2019-05-17T05:51:05.412Z,10.50
2019-05-17T05:53:36.905Z,10.52
2019-05-17T05:56:07.962Z,10.59
2019-05-17T05:58:38.811Z,10.59
2019-05-17T06:01:12.556Z,10.58
2019-05-17T06:03:43.352Z,10.60
2019-05-17T06:06:14.458Z,10.52
2019-05-17T06:08:45.544Z,10.56
2019-05-17T06:11:16.602Z,10.67
2019-05-17T06:13:47.521Z,10.61
2019-05-17T06:16:18.616Z,10.67
2019-05-17T06:18:51.552Z,10.72
2019-05-17T06:21:22.743Z,10.68
2019-05-17T06:23:53.941Z,10.72
2019-05-17T06:26:24.905Z,10.75
2019-05-17T06:28:55.905Z,10.84
2019-05-17T06:31:26.942Z,10.93
2019-05-17T06:33:57.954Z,11.06
2019-05-17T06:36:28.925Z,11.12
2019-05-17T06:39:02.096Z,11.14
2019-05-17T06:41:32.753Z,11.36
2019-05-17T06:44:03.790Z,11.43
2019-05-17T06:46:34.859Z,11.34
2019-05-17T06:49:06.272Z,11.26
2019-05-17T06:51:37.328Z,11.35
2019-05-17T06:54:08.278Z,11.22
2019-05-17T06:56:41.638Z,11.35
2019-05-17T06:59:12.759Z,11.49
2019-05-17T07:01:44.098Z,11.38
2019-05-17T07:04:16.305Z,11.50
2019-05-17T07:09:16.364Z,11.49
2019-05-17T07:14:19.961Z,11.69
2019-05-17T07:19:23.519Z,11.72
2019-05-17T07:24:23.718Z,11.79
2019-05-17T07:26:55.194Z,11.81
2019-05-17T07:34:24.800Z,11.92
2019-05-17T07:39:25.049Z,11.91
2019-05-17T07:44:25.493Z,11.92
2019-05-17T07:46:56.683Z,11.94
2019-05-17T07:49:46.653Z,11.80
2019-05-17T07:59:52.605Z,12.14
2019-05-17T08:04:54.600Z,12.02
2019-05-17T08:09:56.525Z,12.03
2019-05-17T08:14:59.687Z,12.15
2019-05-17T08:20:00.633Z,12.08
2019-05-17T08:25:01.893Z,12.20
2019-05-17T08:30:04.160Z,12.11
2019-05-17T08:35:04.321Z,12.17
2019-05-17T08:37:37.467Z,12.34
2019-05-17T08:40:10.804Z,12.36
2019-05-17T08:42:41.996Z,12.42
2019-05-17T08:45:12.928Z,12.45
2019-05-17T08:50:12.968Z,12.45
2019-05-17T08:52:44.291Z,12.59
2019-05-17T08:55:16.758Z,12.52
2019-05-17T09:00:17.033Z,12.75
2019-05-17T09:05:20.841Z,12.85
2019-05-17T09:08:10.802Z,12.83
2019-05-17T09:10:42.771Z,12.78
2019-05-17T09:13:14.830Z,12.85
2019-05-17T09:18:14.811Z,12.67
2019-05-17T09:20:45.732Z,12.73
2019-05-17T09:23:19.740Z,12.65
2019-05-17T09:25:50.779Z,12.56
2019-05-17T09:28:21.957Z,12.61
2019-05-17T09:30:53.004Z,12.73
2019-05-17T09:33:24.047Z,12.85
2019-05-17T09:35:55.003Z,12.91
2019-05-17T09:38:25.927Z,12.84
2019-05-17T09:40:56.927Z,12.92
2019-05-17T09:43:29.515Z,12.78
2019-05-17T09:46:01.550Z,12.96
2019-05-17T09:48:32.935Z,13.15
2019-05-17T09:51:03.879Z,13.27
2019-05-17T09:53:34.990Z,13.30
2019-05-17T09:56:06.298Z,13.26
2019-05-17T09:58:39.523Z,13.41
2019-05-17T10:01:10.226Z,13.61
2019-05-17T10:03:41.285Z,13.59
2019-05-17T10:06:12.248Z,13.63
2019-05-17T10:08:43.264Z,13.47
2019-05-17T10:11:14.526Z,13.33
2019-05-17T10:13:45.509Z,13.18
2019-05-17T10:16:16.495Z,13.33
2019-05-17T10:18:47.449Z,13.19
2019-05-17T10:21:19.859Z,13.29
2019-05-17T10:23:51.308Z,13.09
2019-05-17T10:26:22.622Z,12.99
2019-05-17T10:28:53.959Z,13.01
2019-05-17T10:31:25.409Z,12.89
2019-05-17T10:33:58.289Z,13.09
2019-05-17T10:36:29.454Z,13.14
2019-05-17T10:39:00.421Z,13.15
2019-05-17T10:41:31.392Z,13.14
2019-05-17T10:44:02.286Z,13.11
2019-05-17T10:46:33.184Z,13.20
2019-05-17T10:49:04.255Z,13.31
2019-05-17T10:51:35.260Z,13.53
2019-05-17T10:54:06.171Z,13.45
2019-05-17T10:56:37.072Z,13.47
2019-05-17T10:59:09.815Z,13.43
2019-05-17T11:01:40.755Z,13.56
2019-05-17T11:04:11.778Z,13.57
2019-05-17T11:06:43.270Z,13.49
2019-05-17T11:09:14.223Z,13.59
2019-05-17T11:11:45.354Z,13.55
2019-05-17T11:14:52.278Z,13.63
2019-05-17T11:17:30.761Z,13.60
2019-05-17T11:20:16.654Z,13.74
2019-05-17T11:23:04.281Z,13.91
2019-05-17T11:25:56.352Z,13.99
2019-05-17T11:28:28.294Z,13.84
2019-05-17T11:31:09.258Z,14.16
2019-05-17T11:33:40.267Z,14.06
2019-05-17T11:36:12.453Z,14.26
2019-05-17T11:38:43.457Z,14.17
2019-05-17T11:41:21.175Z,14.43
2019-05-17T11:43:48.379Z,14.27
2019-05-17T11:46:19.307Z,14.26
2019-05-17T11:48:51.648Z,14.32
2019-05-17T11:51:51.384Z,14.57
2019-05-17T11:54:22.400Z,14.76
2019-05-17T11:56:53.411Z,14.91
2019-05-17T11:59:25.092Z,15.06
2019-05-17T12:01:58.520Z,15.35
2019-05-17T12:04:29.595Z,15.70
2019-05-17T12:09:37.391Z,15.70
2019-05-17T12:12:03.442Z,15.60
2019-05-17T12:14:36.218Z,15.83
2019-05-17T12:17:06.885Z,15.74
2019-05-17T12:22:07.103Z,15.54
2019-05-17T12:27:07.564Z,15.41
2019-05-17T12:29:39.338Z,15.53
2019-05-17T12:34:39.086Z,15.86
2019-05-17T12:37:09.637Z,16.05
2019-05-17T12:44:42.106Z,16.19
2019-05-17T12:47:14.366Z,16.35
2019-05-17T12:52:14.166Z,16.44
2019-05-17T12:57:15.668Z,16.52
2019-05-17T13:02:18.377Z,16.52
2019-05-17T13:07:18.625Z,16.88
2019-05-17T13:09:53.624Z,17.15
2019-05-17T13:12:24.661Z,17.15
2019-05-17T13:14:56.453Z,17.17
2019-05-17T13:17:27.760Z,17.35
2019-05-17T13:24:58.837Z,16.93
2019-05-17T13:30:03.515Z,16.61
2019-05-17T13:32:34.599Z,16.62
2019-05-17T13:35:09.565Z,16.56
2019-05-17T13:37:40.530Z,16.60
2019-05-17T13:40:14.093Z,16.65
2019-05-17T13:42:45.179Z,16.61
2019-05-17T13:45:17.539Z,16.65
2019-05-17T13:47:48.424Z,16.62
2019-05-17T13:50:19.696Z,16.72
2019-05-17T13:52:50.691Z,16.66
2019-05-17T13:55:21.862Z,16.55
2019-05-17T13:57:52.807Z,16.72
2019-05-17T14:00:23.869Z,16.69
2019-05-17T14:02:54.810Z,16.86
2019-05-17T14:05:25.857Z,16.89
2019-05-17T14:07:56.868Z,16.83
2019-05-17T14:10:31.535Z,16.94
2019-05-17T14:13:00.760Z,17.04
2019-05-17T14:15:32.049Z,17.26
2019-05-17T14:18:03.654Z,17.46
2019-05-17T14:20:34.942Z,17.45
2019-05-17T14:23:06.555Z,17.69
2019-05-17T14:25:38.726Z,17.78
2019-05-17T14:28:11.485Z,17.83
2019-05-17T14:30:42.708Z,17.70
2019-05-17T14:33:13.961Z,17.55
2019-05-17T14:35:45.071Z,17.47
2019-05-17T14:41:05.607Z,17.24
2019-05-17T14:43:19.862Z,17.28
2019-05-17T14:45:50.889Z,17.22
2019-05-17T14:48:21.853Z,17.34
2019-05-17T14:50:52.988Z,17.27
2019-05-17T14:53:24.027Z,17.05
2019-05-17T14:55:55.082Z,17.02
2019-05-17T14:58:26.116Z,17.25
2019-05-17T15:00:57.161Z,17.34
2019-05-17T15:03:28.186Z,17.37
2019-05-17T15:05:59.099Z,17.29
2019-05-17T15:08:30.138Z,17.27
2019-05-17T15:11:01.210Z,17.14
2019-05-17T15:13:33.637Z,17.05
2019-05-17T15:16:05.570Z,17.06
2019-05-17T15:18:36.966Z,17.03
2019-05-17T15:21:08.364Z,16.82
2019-05-17T15:23:39.356Z,16.76
2019-05-17T15:26:10.318Z,16.81
2019-05-17T15:28:41.511Z,16.86
2019-05-17T15:31:12.505Z,16.71
2019-05-17T15:33:43.568Z,16.62
2019-05-17T15:36:14.538Z,16.79
2019-05-17T15:38:45.614Z,16.88
2019-05-17T15:41:16.724Z,16.93
2019-05-17T15:43:47.698Z,16.86
2019-05-17T15:46:18.740Z,16.86
2019-05-17T15:48:49.674Z,16.99
2019-05-17T15:51:20.768Z,17.06
2019-05-17T15:53:51.861Z,17.20
2019-05-17T15:56:22.896Z,17.14
2019-05-17T15:58:53.939Z,17.19
2019-05-17T16:01:24.914Z,17.17
2019-05-17T16:03:55.927Z,17.08
2019-05-17T16:06:26.991Z,17.04
2019-05-17T16:08:58.002Z,17.15
2019-05-17T16:11:28.972Z,17.07
2019-05-17T16:14:00.084Z,17.12
2019-05-17T16:16:31.116Z,17.05
2019-05-17T16:19:02.055Z,16.98
2019-05-17T16:21:33.108Z,16.91
2019-05-17T16:24:04.352Z,16.99
2019-05-17T16:26:35.448Z,17.06
2019-05-17T16:29:07.070Z,17.03
2019-05-17T16:31:40.919Z,16.99
2019-05-17T16:34:11.984Z,16.93
2019-05-17T16:36:43.023Z,16.91
2019-05-17T16:39:14.126Z,16.84
2019-05-17T16:41:45.177Z,16.92
2019-05-17T16:44:16.294Z,17.04
2019-05-17T16:46:47.290Z,16.95
2019-05-17T16:49:18.316Z,16.92
2019-05-17T16:51:49.317Z,17.05
2019-05-17T16:54:20.299Z,17.12
2019-05-17T16:56:51.279Z,17.02
2019-05-17T16:59:22.391Z,16.90
2019-05-17T17:01:53.520Z,16.87
2019-05-17T17:06:54.467Z,16.78
2019-05-17T17:09:25.665Z,16.80
2019-05-17T17:11:56.565Z,16.87
2019-05-17T17:14:28.021Z,16.95
2019-05-17T17:16:59.140Z,16.93
2019-05-17T17:19:30.106Z,17.00
2019-05-17T17:22:01.341Z,16.97
2019-05-17T17:24:32.352Z,16.80
2019-05-17T17:27:03.631Z,16.81
2019-05-17T17:29:34.776Z,16.78
2019-05-17T17:32:19.433Z,16.74
2019-05-17T17:34:39.486Z,16.72
2019-05-17T17:37:10.811Z,16.72
2019-05-17T17:39:42.524Z,16.75
2019-05-17T17:42:13.643Z,16.64
2019-05-17T17:44:47.640Z,16.52
2019-05-17T17:47:18.668Z,16.41
2019-05-17T17:49:51.017Z,16.39
2019-05-17T17:52:22.270Z,16.49
2019-05-17T17:54:53.377Z,16.38
2019-05-17T17:57:28.476Z,16.29
2019-05-17T17:59:59.679Z,16.21
2019-05-17T18:02:30.796Z,16.25
2019-05-17T18:05:04.041Z,16.13
2019-05-17T18:07:37.135Z,16.23
2019-05-17T18:12:55.645Z,16.29
2019-05-17T18:15:42.078Z,16.34
2019-05-17T18:18:16.440Z,16.29
2019-05-17T18:20:47.477Z,16.25
2019-05-17T18:23:22.972Z,16.18
2019-05-17T18:25:51.630Z,16.21
2019-05-17T18:28:45.168Z,16.12
2019-05-17T18:31:16.268Z,16.14
2019-05-17T18:33:47.371Z,16.11
2019-05-17T18:36:18.413Z,16.18
2019-05-17T18:38:51.461Z,16.09
2019-05-17T18:41:25.169Z,16.14
2019-05-17T18:43:58.156Z,16.03
2019-05-17T18:46:30.858Z,16.04
2019-05-17T18:54:07.477Z,15.87
2019-05-17T18:56:43.723Z,15.87
2019-05-17T18:59:19.373Z,15.89
2019-05-17T19:01:50.428Z,15.89
2019-05-17T19:04:21.470Z,15.95
2019-05-17T19:07:13.129Z,15.97
2019-05-17T19:09:58.368Z,16.05
2019-05-17T19:13:19.266Z,16.08
2019-05-17T19:16:51.218Z,16.16
2019-05-17T19:19:22.266Z,16.14
2019-05-17T19:21:53.137Z,16.08
2019-05-17T19:24:24.127Z,15.97
2019-05-17T19:26:55.265Z,16.00
2019-05-17T19:29:30.357Z,16.01
2019-05-17T19:32:03.564Z,16.02
2019-05-17T19:34:34.676Z,16.03
2019-05-17T19:37:08.870Z,16.02
2019-05-17T19:39:39.917Z,15.95
2019-05-17T19:42:10.771Z,15.89
2019-05-17T19:47:11.165Z,15.79
2019-05-17T19:52:15.760Z,15.79
2019-05-17T19:55:07.851Z,15.81
2019-05-17T19:57:40.648Z,15.77
2019-05-17T20:00:14.927Z,15.76
2019-05-17T20:05:18.713Z,15.68
2019-05-17T20:10:25.664Z,15.55
2019-05-17T20:15:34.536Z,15.38
2019-05-17T20:20:32.081Z,15.26
2019-05-17T20:25:32.043Z,15.10
2019-05-17T20:28:03.039Z,15.02
2019-05-17T20:30:41.194Z,14.98
2019-05-17T20:33:12.204Z,14.95
2019-05-17T20:35:43.284Z,14.91
2019-05-17T20:38:18.688Z,14.87
2019-05-17T20:41:27.522Z,14.77
2019-05-17T20:44:00.971Z,14.71
2019-05-17T20:46:40.772Z,14.57
2019-05-17T20:49:14.655Z,14.50
2019-05-17T20:51:45.623Z,14.43
2019-05-17T20:57:57.109Z,14.25
2019-05-17T21:00:28.273Z,14.16
2019-05-17T21:02:59.421Z,14.02
2019-05-17T21:05:40.608Z,13.98
2019-05-17T21:08:17.741Z,14.01
2019-05-17T21:10:49.045Z,13.95
2019-05-17T21:14:27.964Z,13.94
2019-05-17T21:16:55.810Z,13.95
2019-05-17T21:19:26.928Z,13.90
2019-05-17T21:21:57.969Z,13.87
2019-05-17T21:24:29.052Z,13.88
2019-05-17T21:27:00.121Z,13.90
2019-05-17T21:29:31.197Z,13.87
2019-05-17T21:32:02.320Z,13.86
2019-05-17T21:34:33.352Z,13.78
2019-05-17T21:37:04.446Z,13.77
2019-05-17T21:39:35.387Z,13.73
2019-05-17T21:42:06.400Z,13.71
2019-05-17T21:44:37.307Z,13.64
2019-05-17T21:47:08.246Z,13.62
2019-05-17T21:49:39.260Z,13.60
2019-05-17T21:52:10.261Z,13.56
2019-05-17T21:54:41.183Z,13.57
2019-05-17T21:57:12.330Z,13.53
2019-05-17T21:59:43.405Z,13.49
2019-05-17T22:02:14.440Z,13.46
2019-05-17T22:04:45.386Z,13.44
2019-05-17T22:07:16.444Z,13.37
2019-05-17T22:09:47.467Z,13.35
2019-05-17T22:12:18.535Z,13.30
2019-05-17T22:14:49.742Z,13.22
2019-05-17T22:17:21.060Z,13.17
2019-05-17T22:19:52.524Z,13.00
2019-05-17T22:22:23.687Z,12.88
2019-05-17T22:24:54.764Z,12.82
2019-05-17T22:27:25.822Z,12.81
2019-05-17T22:29:56.729Z,12.77
2019-05-17T22:32:27.605Z,12.68
2019-05-17T22:34:58.517Z,12.58
2019-05-17T22:37:29.539Z,12.55
2019-05-17T22:40:00.735Z,12.52
2019-05-17T22:42:31.826Z,12.48
2019-05-17T22:45:02.834Z,12.41
2019-05-17T22:47:33.835Z,12.36
2019-05-17T22:50:06.401Z,12.36
2019-05-17T22:52:37.363Z,12.33
2019-05-17T22:55:08.460Z,12.25
2019-05-17T22:57:39.637Z,12.22
2019-05-17T23:00:10.482Z,12.20
2019-05-17T23:02:41.394Z,12.18
2019-05-17T23:05:12.334Z,12.12
2019-05-17T23:07:43.239Z,12.07
2019-05-17T23:10:14.268Z,12.06
2019-05-17T23:12:45.249Z,11.99
2019-05-17T23:15:16.218Z,11.98
2019-05-17T23:17:47.144Z,11.94
2019-05-17T23:20:18.131Z,11.89
2019-05-17T23:22:49.067Z,11.78
2019-05-17T23:25:20.084Z,11.72
2019-05-17T23:27:50.917Z,11.67
2019-05-17T23:30:22.067Z,11.63
2019-05-17T23:32:53.534Z,11.58
2019-05-17T23:35:24.977Z,11.57
2019-05-17T23:37:56.371Z,11.56
2019-05-17T23:40:27.581Z,11.50
2019-05-17T23:42:58.619Z,11.46
2019-05-17T23:45:29.596Z,11.40
2019-05-17T23:48:00.688Z,11.36
2019-05-17T23:50:31.684Z,11.34
2019-05-17T23:53:02.641Z,11.29
2019-05-17T23:55:33.454Z,11.30
2019-05-17T23:58:04.468Z,11.25
